Time;durP1;ratioP1;P1;durP2;ratioP2;P2;SDS_P1;SDS_P2;PMS_P1;PMS_P2;Temp;Humidity;BMP_temperature;BMP_pressure;BME280_temperature;BME280_humidity;BME280_pressure;Samples;Min_cycle;Max_cycle;Signal;HPM_P1;HPM_P2
2023/12/11 00:02:21;;;;;;;12.35;2.97;;;28.50;99.90;;;;;;5070528;28;20200;-77
2023/12/11 00:04:52;;;;;;;12.40;2.90;;;28.60;99.90;;;;;;5086912;28;20199;-76
2023/12/11 00:07:23;;;;;;;12.27;2.70;;;28.60;99.90;;;;;;5090281;28;20215;-77
2023/12/11 00:09:56;;;;;;;14.93;3.33;;;28.70;99.90;;;;;;5089920;28;20302;-78
2023/12/11 00:12:26;;;;;;;15.32;3.35;;;28.60;99.90;;;;;;5090070;28;20235;-77
2023/12/11 00:14:57;;;;;;;12.93;2.83;;;28.60;99.90;;;;;;5077584;28;20287;-77
2023/12/11 00:17:30;;;;;;;16.65;3.17;;;28.60;99.90;;;;;;5070041;28;20693;-76
2023/12/11 00:20:00;;;;;;;11.77;2.83;;;28.40;99.90;;;;;;5070065;28;20200;-76
2023/12/11 00:22:31;;;;;;;13.10;3.13;;;28.40;99.90;;;;;;5088876;28;20683;-76
2023/12/11 00:25:04;;;;;;;15.57;2.95;;;28.30;99.90;;;;;;5089905;28;20210;-77
2023/12/11 00:27:36;;;;;;;14.90;3.17;;;28.20;99.90;;;;;;5081749;28;20227;-76
2023/12/11 00:30:08;;;;;;;12.57;3.15;;;28.20;99.90;;;;;;5076362;28;20323;-76
2023/12/11 00:32:39;;;;;;;13.40;3.03;;;28.20;99.90;;;;;;5069925;28;20188;-76
2023/12/11 00:35:10;;;;;;;14.10;3.00;;;28.10;99.90;;;;;;5076954;28;20270;-77
2023/12/11 00:37:41;;;;;;;16.63;3.45;;;27.90;99.90;;;;;;5088385;28;20564;-78
2023/12/11 00:40:15;;;;;;;14.68;3.03;;;27.90;99.90;;;;;;5085657;28;20196;-77
2023/12/11 00:42:46;;;;;;;13.48;2.95;;;27.90;99.90;;;;;;5087115;28;20280;-78
2023/12/11 00:45:16;;;;;;;13.77;2.85;;;28.20;99.90;;;;;;5090727;28;20286;-77
2023/12/11 00:47:47;;;;;;;20.27;3.90;;;28.30;99.90;;;;;;5086606;28;20283;-79
2023/12/11 00:50:18;;;;;;;15.43;3.20;;;28.40;99.90;;;;;;5075802;28;20302;-78
2023/12/11 00:52:49;;;;;;;17.20;3.40;;;28.50;99.90;;;;;;5088948;28;20286;-77
2023/12/11 00:55:23;;;;;;;14.52;2.80;;;28.50;99.90;;;;;;5092811;28;20286;-77
2023/12/11 00:57:54;;;;;;;13.55;2.72;;;28.50;99.90;;;;;;5075569;28;20194;-78
2023/12/11 01:00:25;;;;;;;13.65;2.95;;;28.50;99.90;;;;;;5081099;28;20259;-79
2023/12/11 01:02:56;;;;;;;10.13;2.65;;;28.50;99.90;;;;;;5075264;28;20249;-78
2023/12/11 01:05:27;;;;;;;16.63;3.60;;;28.40;99.90;;;;;;5072349;28;20745;-78
2023/12/11 01:07:58;;;;;;;15.32;3.33;;;28.40;99.90;;;;;;5077261;28;20698;-79
2023/12/11 01:10:30;;;;;;;12.43;2.95;;;28.20;99.90;;;;;;5072515;28;20218;-78
2023/12/11 01:13:01;;;;;;;12.02;2.85;;;28.30;99.90;;;;;;5084140;28;20203;-77
2023/12/11 01:15:32;;;;;;;12.05;2.80;;;28.30;99.90;;;;;;5092781;28;20203;-79
2023/12/11 01:18:03;;;;;;;9.23;2.53;;;28.40;99.90;;;;;;5086396;28;20238;-77
2023/12/11 01:20:34;;;;;;;10.43;2.53;;;28.50;99.90;;;;;;5089094;28;20298;-77
2023/12/11 01:23:05;;;;;;;11.70;2.75;;;28.60;99.90;;;;;;5091949;28;20201;-77
2023/12/11 01:25:38;;;;;;;9.57;2.65;;;28.70;99.90;;;;;;5078630;28;20597;-78
2023/12/11 01:28:09;;;;;;;9.88;2.55;;;28.90;99.90;;;;;;5083211;28;20206;-78
2023/12/11 01:30:39;;;;;;;11.38;2.75;;;29.10;99.90;;;;;;5079499;28;20311;-78
2023/12/11 01:33:10;;;;;;;15.13;2.90;;;29.10;99.90;;;;;;5073115;28;20278;-78
2023/12/11 01:35:41;;;;;;;13.07;2.80;;;29.20;99.90;;;;;;5083478;28;20238;-78
2023/12/11 01:38:12;;;;;;;11.15;2.45;;;29.30;99.90;;;;;;5083226;28;20280;-78
2023/12/11 01:40:45;;;;;;;12.43;2.83;;;29.40;99.90;;;;;;5081876;28;20650;-78
2023/12/11 01:43:17;;;;;;;10.82;2.35;;;29.30;99.90;;;;;;5074295;28;20192;-78
2023/12/11 01:45:55;;;;;;;12.38;3.10;;;29.40;99.90;;;;;;5081349;28;20337;-78
2023/12/11 01:48:26;;;;;;;11.48;2.60;;;29.60;99.90;;;;;;5078724;28;20250;-77
2023/12/11 01:50:57;;;;;;;9.60;2.55;;;29.70;99.90;;;;;;5075612;28;20352;-77
2023/12/11 01:53:29;;;;;;;13.27;2.78;;;29.80;99.90;;;;;;5090553;28;20212;-77
2023/12/11 01:56:02;;;;;;;11.07;2.70;;;29.80;99.90;;;;;;5092022;28;20198;-77
2023/12/11 01:58:33;;;;;;;15.88;3.25;;;29.90;99.90;;;;;;5077608;28;20295;-77
2023/12/11 02:01:04;;;;;;;10.27;2.83;;;30.00;99.90;;;;;;5080955;28;20716;-77
2023/12/11 02:03:35;;;;;;;14.75;3.25;;;30.10;99.90;;;;;;5076894;28;20238;-78
2023/12/11 02:06:06;;;;;;;10.80;2.60;;;30.10;99.90;;;;;;5071395;28;20270;-78
2023/12/11 02:08:37;;;;;;;8.50;2.30;;;30.00;99.90;;;;;;5071335;28;20287;-77
2023/12/11 02:11:10;;;;;;;10.85;2.30;;;30.10;99.90;;;;;;5078762;28;20223;-76
2023/12/11 02:13:43;;;;;;;12.18;2.60;;;30.10;99.90;;;;;;5084417;28;20624;-76
2023/12/11 02:16:18;;;;;;;9.50;2.58;;;30.20;99.90;;;;;;5081049;28;20266;-76
2023/12/11 02:18:48;;;;;;;12.23;2.45;;;30.20;99.90;;;;;;5084033;28;20269;-77
2023/12/11 02:21:20;;;;;;;9.02;2.53;;;30.20;99.90;;;;;;5071607;28;20224;-76
2023/12/11 02:23:55;;;;;;;10.10;2.50;;;30.20;99.90;;;;;;5071345;28;20257;-76
2023/12/11 02:26:28;;;;;;;11.07;2.85;;;30.20;99.90;;;;;;5071271;28;20199;-77
2023/12/11 02:28:59;;;;;;;10.43;2.70;;;30.30;99.90;;;;;;5075482;28;20532;-77
2023/12/11 02:31:30;;;;;;;8.90;2.33;;;30.10;99.90;;;;;;5073096;28;20266;-77
2023/12/11 02:34:01;;;;;;;12.60;2.60;;;30.10;99.90;;;;;;5071100;28;20202;-77
2023/12/11 02:36:31;;;;;;;12.98;2.65;;;30.10;99.90;;;;;;5071421;28;20234;-78
2023/12/11 02:39:03;;;;;;;8.73;2.60;;;30.10;99.90;;;;;;5070775;28;20673;-77
2023/12/11 02:41:35;;;;;;;9.98;2.53;;;30.10;99.90;;;;;;5070815;28;20238;-77
2023/12/11 02:44:06;;;;;;;10.15;2.78;;;30.10;99.90;;;;;;5070936;28;20188;-77
2023/12/11 02:46:37;;;;;;;10.32;2.70;;;30.30;99.90;;;;;;5070415;28;20585;-77
2023/12/11 02:49:08;;;;;;;14.93;3.83;;;30.20;99.90;;;;;;5073918;28;20261;-77
2023/12/11 02:51:39;;;;;;;11.20;3.38;;;30.20;99.90;;;;;;5086386;28;20279;-77
2023/12/11 02:54:09;;;;;;;11.40;3.40;;;30.30;99.90;;;;;;5070844;28;20203;-77
2023/12/11 02:56:44;;;;;;;8.40;3.10;;;30.30;99.90;;;;;;5084806;28;20199;-77
2023/12/11 02:59:14;;;;;;;11.43;2.85;;;30.40;99.90;;;;;;5090454;28;20194;-77
2023/12/11 03:01:45;;;;;;;9.05;3.20;;;30.40;99.90;;;;;;5090486;28;20223;-77
2023/12/11 03:04:16;;;;;;;9.75;3.22;;;30.50;99.90;;;;;;5090843;28;20195;-76
2023/12/11 03:06:47;;;;;;;9.85;3.92;;;30.40;99.90;;;;;;5089326;28;20191;-77
2023/12/11 03:09:18;;;;;;;10.80;4.22;;;30.40;99.90;;;;;;5074866;28;20203;-77
2023/12/11 03:11:53;;;;;;;12.25;4.28;;;30.40;99.90;;;;;;5087256;28;20280;-76
2023/12/11 03:14:24;;;;;;;12.50;4.28;;;30.40;99.90;;;;;;5090861;28;20198;-77
2023/12/11 03:16:54;;;;;;;12.07;4.47;;;30.40;99.90;;;;;;5070030;28;20199;-76
2023/12/11 03:19:26;;;;;;;9.48;4.40;;;30.60;99.90;;;;;;5070415;28;20278;-77
2023/12/11 03:21:57;;;;;;;12.05;3.92;;;30.70;99.90;;;;;;5070267;28;20234;-78
2023/12/11 03:24:28;;;;;;;7.72;3.53;;;30.70;99.90;;;;;;5069868;28;20227;-77
2023/12/11 03:27:01;;;;;;;10.85;4.18;;;30.80;99.90;;;;;;5070531;28;20283;-77
2023/12/11 03:29:31;;;;;;;11.88;4.03;;;30.80;99.90;;;;;;5070518;28;20290;-78
2023/12/11 03:32:02;;;;;;;14.23;3.88;;;30.60;99.90;;;;;;5070362;28;20224;-77
2023/12/11 03:34:33;;;;;;;7.80;3.53;;;30.40;99.90;;;;;;5072358;28;20254;-78
2023/12/11 03:37:04;;;;;;;8.20;3.50;;;30.40;99.90;;;;;;5087885;28;20318;-77
2023/12/11 03:39:35;;;;;;;8.57;3.05;;;30.50;99.90;;;;;;5090743;28;20674;-77
2023/12/11 03:42:08;;;;;;;8.95;3.03;;;30.60;99.90;;;;;;5088672;28;20201;-76
2023/12/11 03:44:40;;;;;;;11.07;3.22;;;30.60;99.90;;;;;;5082579;28;20196;-77
2023/12/11 03:47:10;;;;;;;7.72;2.90;;;30.70;99.90;;;;;;5073989;28;20255;-77
2023/12/11 03:49:41;;;;;;;8.07;2.70;;;30.70;99.90;;;;;;5091042;28;20278;-78
2023/12/11 03:52:12;;;;;;;10.10;2.25;;;30.70;99.90;;;;;;5088870;28;20223;-77
2023/12/11 03:54:43;;;;;;;8.95;2.65;;;30.80;99.90;;;;;;5080022;28;20630;-77
2023/12/11 03:57:16;;;;;;;10.75;2.78;;;30.70;99.90;;;;;;5074863;28;20199;-76
2023/12/11 03:59:47;;;;;;;7.32;2.28;;;30.70;99.90;;;;;;5094893;28;20196;-77
2023/12/11 04:02:17;;;;;;;8.07;2.20;;;30.70;99.90;;;;;;5092751;28;20229;-77
2023/12/11 04:04:48;;;;;;;9.80;2.50;;;30.70;99.90;;;;;;5094274;28;20651;-77
2023/12/11 04:07:20;;;;;;;6.35;1.88;;;30.90;99.90;;;;;;5091500;28;20229;-78
2023/12/11 04:09:51;;;;;;;12.18;2.60;;;30.80;99.90;;;;;;5083836;28;20254;-79
2023/12/11 04:12:23;;;;;;;9.18;2.22;;;30.90;99.90;;;;;;5081536;28;20229;-78
2023/12/11 04:14:54;;;;;;;9.45;2.47;;;31.00;99.90;;;;;;5088681;28;20295;-79
2023/12/11 04:17:26;;;;;;;7.57;2.20;;;31.00;99.90;;;;;;5087154;28;20191;-78
2023/12/11 04:19:57;;;;;;;7.90;2.28;;;30.90;99.90;;;;;;5072197;28;20203;-78
2023/12/11 04:22:28;;;;;;;7.18;2.17;;;30.90;99.90;;;;;;5080095;28;20222;-78
2023/12/11 04:24:59;;;;;;;6.65;2.10;;;30.80;99.90;;;;;;5083904;28;20303;-78
2023/12/11 04:27:31;;;;;;;8.18;2.33;;;30.80;99.90;;;;;;5076282;28;20231;-78
2023/12/11 04:30:02;;;;;;;5.80;2.00;;;30.90;99.90;;;;;;5073966;28;20196;-78
2023/12/11 04:32:33;;;;;;;6.15;1.92;;;31.00;99.90;;;;;;5073501;28;20226;-78
2023/12/11 04:35:04;;;;;;;8.43;2.15;;;31.00;99.90;;;;;;5084301;28;20204;-78
2023/12/11 04:37:35;;;;;;;6.90;1.95;;;31.10;99.90;;;;;;5073368;28;20202;-78
2023/12/11 04:40:06;;;;;;;7.05;2.05;;;31.00;99.90;;;;;;5073289;28;20227;-78
2023/12/11 04:42:40;;;;;;;6.13;1.90;;;31.20;99.90;;;;;;5074452;28;20203;-76
2023/12/11 04:45:11;;;;;;;7.63;2.13;;;31.30;99.90;;;;;;5077248;28;20279;-77
2023/12/11 04:47:42;;;;;;;7.18;2.20;;;31.30;99.90;;;;;;5077022;28;20235;-76
2023/12/11 04:50:13;;;;;;;8.02;2.00;;;31.40;99.90;;;;;;5087829;28;20282;-76
2023/12/11 04:52:44;;;;;;;8.82;2.00;;;31.40;99.90;;;;;;5078696;28;20345;-76
2023/12/11 04:55:15;;;;;;;8.52;2.22;;;31.40;99.90;;;;;;5082749;28;20206;-77
2023/12/11 04:57:48;;;;;;;8.57;2.38;;;31.40;99.90;;;;;;5075002;28;20200;-77
2023/12/11 05:00:19;;;;;;;5.38;1.70;;;31.40;99.90;;;;;;5093368;28;20278;-76
2023/12/11 05:02:53;;;;;;;5.80;2.13;;;31.40;99.90;;;;;;5092995;28;20677;-78
2023/12/11 05:05:25;;;;;;;9.82;2.22;;;31.50;99.90;;;;;;5091125;28;20275;-78
2023/12/11 05:07:56;;;;;;;7.90;2.13;;;31.50;99.90;;;;;;5079530;28;20271;-78
2023/12/11 05:10:27;;;;;;;7.78;2.20;;;31.60;99.90;;;;;;5074788;28;20742;-79
2023/12/11 05:12:59;;;;;;;7.80;2.30;;;31.60;99.90;;;;;;5081584;28;20688;-77
2023/12/11 05:15:30;;;;;;;10.30;2.20;;;31.70;99.90;;;;;;5075692;28;20274;-77
2023/12/11 05:18:01;;;;;;;6.18;1.98;;;31.80;99.90;;;;;;5088454;28;20199;-77
2023/12/11 05:20:32;;;;;;;6.65;1.73;;;32.00;99.90;;;;;;5092835;28;20256;-78
2023/12/11 05:23:03;;;;;;;6.88;1.95;;;31.90;99.90;;;;;;5085980;28;20275;-81
2023/12/11 05:25:34;;;;;;;6.20;1.95;;;32.10;99.90;;;;;;5072804;28;20611;-77
2023/12/11 05:28:07;;;;;;;6.75;1.88;;;32.10;99.90;;;;;;5074582;28;20208;-78
2023/12/11 05:30:37;;;;;;;9.57;2.13;;;32.20;99.90;;;;;;5094832;28;20282;-77
2023/12/11 05:33:08;;;;;;;9.05;2.25;;;32.20;99.90;;;;;;5094705;28;20258;-77
2023/12/11 05:35:40;;;;;;;8.15;1.80;;;32.40;99.90;;;;;;5093383;28;20195;-79
2023/12/11 05:38:10;;;;;;;6.57;1.92;;;32.50;99.90;;;;;;5089042;28;20199;-78
2023/12/11 05:40:41;;;;;;;9.20;1.95;;;32.30;99.90;;;;;;5094106;28;20250;-78
2023/12/11 05:43:14;;;;;;;8.27;2.17;;;32.40;99.90;;;;;;5088787;28;20193;-77
2023/12/11 05:45:45;;;;;;;7.20;2.15;;;32.50;99.90;;;;;;5080046;28;20231;-78
2023/12/11 05:48:16;;;;;;;6.18;2.05;;;32.30;99.90;;;;;;5088026;28;20302;-78
2023/12/11 05:50:47;;;;;;;6.40;1.73;;;32.60;99.90;;;;;;5077616;28;20246;-77
2023/12/11 05:53:17;;;;;;;6.63;1.75;;;32.90;99.90;;;;;;5088657;28;20869;-78
2023/12/11 05:55:48;;;;;;;5.70;1.80;;;32.80;99.90;;;;;;5071714;28;20243;-78
2023/12/11 05:58:22;;;;;;;6.93;2.08;;;32.50;99.90;;;;;;5072066;28;20301;-78
2023/12/11 06:00:53;;;;;;;6.43;2.05;;;32.50;99.90;;;;;;5083055;28;20219;-78
2023/12/11 06:03:24;;;;;;;8.52;2.00;;;32.30;99.90;;;;;;5082180;28;20210;-77
2023/12/11 06:05:58;;;;;;;6.88;2.25;;;32.00;99.90;;;;;;5092285;28;20202;-78
2023/12/11 06:08:28;;;;;;;7.07;2.17;;;31.90;99.90;;;;;;5073482;28;20662;-77
2023/12/11 06:11:00;;;;;;;8.88;2.20;;;31.80;99.90;;;;;;5074165;28;20211;-79
2023/12/11 06:13:32;;;;;;;6.07;2.20;;;31.80;99.90;;;;;;5082834;28;20278;-79
2023/12/11 06:16:04;;;;;;;9.13;2.28;;;31.80;99.90;;;;;;5071008;28;20286;-79
2023/12/11 06:18:35;;;;;;;5.90;2.00;;;31.50;99.90;;;;;;5079537;28;20275;-78
2023/12/11 06:21:06;;;;;;;8.82;2.10;;;31.70;99.90;;;;;;5071575;28;20196;-79
2023/12/11 06:23:37;;;;;;;8.98;2.00;;;31.60;99.90;;;;;;5071430;28;20200;-76
2023/12/11 06:26:08;;;;;;;8.95;2.40;;;31.80;99.90;;;;;;5071600;28;20559;-78
2023/12/11 06:28:42;;;;;;;7.30;2.10;;;31.80;99.90;;;;;;5070763;28;20231;-78
2023/12/11 06:31:12;;;;;;;7.80;2.53;;;31.60;99.90;;;;;;5089291;28;20357;-78
2023/12/11 06:33:44;;;;;;;8.98;2.05;;;31.40;99.90;;;;;;5085774;28;20550;-78
2023/12/11 06:36:15;;;;;;;6.55;2.30;;;31.20;99.90;;;;;;5091126;28;20215;-78
2023/12/11 06:38:46;;;;;;;4.75;1.92;;;31.00;99.90;;;;;;5091271;28;20197;-78
2023/12/11 06:41:16;;;;;;;7.93;2.38;;;30.50;99.90;;;;;;5091449;28;20755;-78
2023/12/11 06:43:51;;;;;;;6.97;2.13;;;30.80;99.90;;;;;;5088150;28;20196;-77
2023/12/11 06:46:22;;;;;;;6.95;2.92;;;30.70;99.90;;;;;;5091656;28;20764;-77
2023/12/11 06:48:52;;;;;;;9.63;4.22;;;30.90;99.90;;;;;;5092302;28;20282;-77
2023/12/11 06:51:23;;;;;;;8.80;4.55;;;30.70;99.90;;;;;;5084428;28;20279;-79
2023/12/11 06:53:58;;;;;;;12.27;4.82;;;30.60;99.90;;;;;;5090050;28;20234;-78
2023/12/11 06:56:30;;;;;;;8.63;5.15;;;30.90;99.90;;;;;;5087060;28;20188;-79
2023/12/11 06:59:03;;;;;;;11.68;7.68;;;30.70;99.90;;;;;;5072926;28;20287;-78
2023/12/11 07:01:35;;;;;;;12.02;7.22;;;30.60;99.90;;;;;;5077083;28;20261;-77
2023/12/11 07:04:07;;;;;;;11.43;7.13;;;30.20;99.90;;;;;;5071127;28;20198;-78
2023/12/11 07:06:37;;;;;;;10.05;6.75;;;30.10;99.90;;;;;;5070292;28;20226;-78
2023/12/11 07:09:10;;;;;;;9.60;6.22;;;30.10;99.90;;;;;;5070950;28;20287;-78
2023/12/11 07:11:41;;;;;;;10.48;6.32;;;29.90;99.90;;;;;;5070856;28;20299;-79
2023/12/11 07:14:14;;;;;;;10.95;7.10;;;29.80;99.90;;;;;;5078764;28;20650;-77
2023/12/11 07:16:44;;;;;;;12.55;7.95;;;29.60;99.90;;;;;;5085465;28;20341;-78
2023/12/11 07:19:15;;;;;;;10.68;7.22;;;29.40;99.90;;;;;;5084179;28;20640;-79
2023/12/11 07:21:46;;;;;;;10.80;7.35;;;29.30;99.90;;;;;;5086346;28;20246;-79
2023/12/11 07:24:17;;;;;;;12.70;8.90;;;29.10;99.90;;;;;;5071545;28;20279;-79
2023/12/11 07:26:48;;;;;;;14.77;9.77;;;28.90;99.90;;;;;;5071242;28;20210;-79
2023/12/11 07:29:21;;;;;;;15.45;10.20;;;28.80;99.90;;;;;;5071366;28;20266;-79
2023/12/11 07:31:52;;;;;;;13.75;10.80;;;28.70;99.90;;;;;;5081184;28;20299;-79
2023/12/11 07:34:25;;;;;;;14.50;11.23;;;28.50;99.90;;;;;;5075670;28;20888;-78
2023/12/11 07:36:56;;;;;;;16.15;11.75;;;28.40;99.90;;;;;;5089148;28;20685;-79
2023/12/11 07:39:27;;;;;;;13.65;10.93;;;28.30;99.90;;;;;;5088136;28;20199;-78
2023/12/11 07:41:58;;;;;;;15.80;11.75;;;28.10;99.90;;;;;;5088907;28;20248;-80
2023/12/11 07:44:31;;;;;;;13.68;10.23;;;28.00;99.90;;;;;;5070968;28;20195;-79
2023/12/11 07:47:02;;;;;;;12.95;11.00;;;28.00;99.90;;;;;;5089894;28;20227;-78
2023/12/11 07:49:33;;;;;;;14.68;10.18;;;27.90;99.90;;;;;;5088363;28;20219;-77
2023/12/11 07:52:04;;;;;;;11.88;9.70;;;27.80;99.90;;;;;;5089746;28;20302;-77
2023/12/11 07:54:35;;;;;;;12.55;8.93;;;27.70;99.90;;;;;;5088857;28;20207;-78
2023/12/11 07:57:06;;;;;;;10.73;7.30;;;27.60;99.90;;;;;;5087480;28;20223;-78
2023/12/11 07:59:39;;;;;;;13.35;7.13;;;27.60;99.90;;;;;;5080928;28;20312;-79
2023/12/11 08:02:10;;;;;;;8.48;5.50;;;27.60;99.90;;;;;;5090612;28;20227;-77
2023/12/11 08:04:42;;;;;;;12.85;5.60;;;27.60;99.90;;;;;;5091761;28;20298;-77
2023/12/11 08:07:13;;;;;;;8.43;4.72;;;27.60;99.90;;;;;;5075392;28;20195;-78
2023/12/11 08:09:44;;;;;;;8.68;4.35;;;27.50;99.90;;;;;;5073598;28;20280;-78
2023/12/11 08:12:14;;;;;;;7.78;3.50;;;27.50;99.90;;;;;;5073532;28;20253;-78
2023/12/11 08:14:48;;;;;;;6.38;2.80;;;27.50;99.90;;;;;;5073743;28;20207;-78
2023/12/11 08:17:18;;;;;;;8.13;2.80;;;27.50;99.90;;;;;;5084691;28;20199;-79
2023/12/11 08:19:49;;;;;;;8.82;2.38;;;27.40;99.90;;;;;;5085339;28;20650;-78
2023/12/11 08:22:20;;;;;;;9.90;2.42;;;27.40;99.90;;;;;;5095108;28;20770;-78
2023/12/11 08:24:51;;;;;;;13.73;3.28;;;27.30;99.90;;;;;;5098541;28;20199;-77
2023/12/11 08:27:22;;;;;;;6.22;2.22;;;27.20;99.90;;;;;;5094217;28;20282;-77
2023/12/11 08:29:54;;;;;;;10.02;2.33;;;27.20;99.90;;;;;;5092337;28;20617;-78
2023/12/11 08:32:25;;;;;;;9.25;2.10;;;27.20;99.90;;;;;;5092929;28;20222;-77
2023/12/11 08:35:02;;;;;;;7.55;2.10;;;27.20;99.90;;;;;;5075973;28;20203;-77
2023/12/11 08:37:33;;;;;;;9.90;2.03;;;27.30;99.90;;;;;;5073135;28;20203;-77
2023/12/11 08:40:05;;;;;;;9.85;2.22;;;27.20;99.90;;;;;;5088647;28;20195;-77
2023/12/11 08:42:37;;;;;;;9.38;2.10;;;27.10;99.90;;;;;;5073052;28;20198;-77
2023/12/11 08:45:11;;;;;;;8.05;2.08;;;27.00;99.90;;;;;;5072991;28;20275;-77
2023/12/11 08:47:42;;;;;;;8.05;1.98;;;26.90;99.90;;;;;;5074454;28;20259;-78
2023/12/11 08:50:13;;;;;;;6.55;2.15;;;26.90;99.90;;;;;;5082842;28;20222;-78
2023/12/11 08:52:46;;;;;;;7.97;2.25;;;26.90;99.90;;;;;;5087250;28;20219;-79
2023/12/11 08:55:17;;;;;;;8.75;2.33;;;27.00;99.90;;;;;;5092978;28;20246;-77
2023/12/11 08:57:48;;;;;;;9.07;2.58;;;27.00;99.90;;;;;;5082544;28;20195;-77
2023/12/11 09:00:22;;;;;;;9.18;2.60;;;27.00;99.90;;;;;;5083773;28;20636;-77
2023/12/11 09:02:53;;;;;;;5.93;1.98;;;27.00;99.90;;;;;;5081424;28;20191;-78
2023/12/11 09:05:24;;;;;;;9.80;2.70;;;27.00;99.90;;;;;;5073031;28;20693;-77
2023/12/11 09:07:55;;;;;;;8.23;2.10;;;27.00;99.90;;;;;;5080207;28;20378;-82
2023/12/11 09:10:29;;;;;;;9.68;2.20;;;27.00;99.90;;;;;;5083706;28;20196;-77
2023/12/11 09:13:00;;;;;;;7.70;2.20;;;27.00;99.90;;;;;;5078613;28;20220;-79
2023/12/11 09:15:33;;;;;;;7.82;2.13;;;27.00;99.90;;;;;;5087657;28;20195;-78
2023/12/11 09:18:04;;;;;;;8.95;2.33;;;27.00;99.90;;;;;;5090579;28;20219;-78
2023/12/11 09:20:35;;;;;;;5.65;2.03;;;26.90;99.90;;;;;;5077660;28;20682;-78
2023/12/11 09:23:07;;;;;;;9.10;2.50;;;26.90;99.90;;;;;;5072630;28;20199;-79
2023/12/11 09:25:38;;;;;;;11.30;2.55;;;26.90;99.90;;;;;;5087417;28;20310;-78
2023/12/11 09:28:09;;;;;;;10.63;2.33;;;26.90;99.90;;;;;;5092392;28;20195;-77
2023/12/11 09:30:42;;;;;;;8.60;2.13;;;26.90;99.90;;;;;;5091512;28;20353;-78
2023/12/11 09:33:16;;;;;;;9.07;2.40;;;26.80;99.90;;;;;;5084055;28;20311;-77
2023/12/11 09:35:47;;;;;;;8.77;2.47;;;26.90;99.90;;;;;;5089657;28;20316;-77
2023/12/11 09:38:20;;;;;;;8.32;2.20;;;26.90;99.90;;;;;;5073159;28;20658;-77
2023/12/11 09:40:54;;;;;;;9.07;2.15;;;26.90;99.90;;;;;;5072503;28;20232;-77
2023/12/11 09:43:28;;;;;;;9.73;2.30;;;26.80;99.90;;;;;;5077444;28;20277;-77
2023/12/11 09:46:01;;;;;;;10.45;2.58;;;26.90;99.90;;;;;;5093090;28;20263;-76
2023/12/11 09:48:35;;;;;;;13.38;2.35;;;26.90;99.90;;;;;;5079371;28;20227;-77
2023/12/11 09:51:09;;;;;;;11.52;2.50;;;26.90;99.90;;;;;;5094873;28;20300;-76
2023/12/11 09:53:40;;;;;;;9.05;2.70;;;26.80;99.90;;;;;;5084746;28;20814;-77
2023/12/11 09:56:22;;;;;;;11.40;2.70;;;26.80;99.90;;;;;;5085993;28;20225;-77
2023/12/11 09:58:54;;;;;;;8.40;2.25;;;26.70;99.90;;;;;;5075363;28;20282;-77
2023/12/11 10:01:27;;;;;;;6.30;2.10;;;26.70;99.90;;;;;;5071873;28;20288;-77
2023/12/11 10:03:59;;;;;;;10.77;2.42;;;26.60;99.90;;;;;;5084946;28;20203;-77
2023/12/11 10:06:33;;;;;;;9.95;2.30;;;26.60;99.90;;;;;;5091302;28;20199;-78
2023/12/11 10:09:08;;;;;;;9.93;2.28;;;26.60;99.90;;;;;;5078443;28;20306;-78
2023/12/11 10:12:02;;;;;;;10.80;2.20;;;26.60;99.90;;;;;;5073451;28;20199;-77
2023/12/11 10:14:37;;;;;;;11.55;2.13;;;26.60;99.90;;;;;;5087339;28;20314;-77
2023/12/11 10:17:19;;;;;;;10.27;2.35;;;26.50;99.90;;;;;;5084015;28;20194;-77
2023/12/11 10:19:53;;;;;;;11.13;2.35;;;26.50;99.90;;;;;;5084141;28;20191;-78
2023/12/11 10:22:31;;;;;;;12.00;2.47;;;26.50;99.90;;;;;;5090220;28;20658;-77
2023/12/11 10:25:02;;;;;;;9.90;1.92;;;26.50;99.90;;;;;;5071698;28;20231;-78
2023/12/11 10:27:36;;;;;;;7.43;2.00;;;26.50;99.90;;;;;;5073803;28;20196;-79
2023/12/11 10:30:13;;;;;;;8.05;2.20;;;26.50;99.90;;;;;;5092551;28;20199;-78
2023/12/11 10:32:56;;;;;;;11.32;2.40;;;26.50;99.90;;;;;;5088744;28;20633;-77
2023/12/11 10:35:27;;;;;;;11.70;2.28;;;26.60;99.90;;;;;;5087707;28;20211;-77
2023/12/11 10:38:03;;;;;;;9.38;2.30;;;26.60;99.90;;;;;;5079910;28;20196;-77
2023/12/11 10:41:13;;;;;;;7.88;2.22;;;26.60;99.90;;;;;;5071530;28;20260;-77
2023/12/11 10:43:47;;;;;;;8.45;2.10;;;26.60;99.90;;;;;;5070989;28;20203;-77
2023/12/11 10:46:18;;;;;;;5.82;1.90;;;26.60;99.90;;;;;;5090315;28;20967;-78
2023/12/11 10:48:55;;;;;;;9.18;2.05;;;26.60;99.90;;;;;;5090606;28;20244;-76
2023/12/11 10:51:26;;;;;;;8.65;2.20;;;26.60;99.90;;;;;;5080936;28;20222;-77
2023/12/11 10:53:57;;;;;;;12.45;2.40;;;26.60;99.90;;;;;;5070482;28;20228;-78
2023/12/11 10:56:28;;;;;;;10.35;2.15;;;26.70;99.90;;;;;;5070746;28;20196;-78
2023/12/11 10:59:00;;;;;;;10.02;1.98;;;26.70;99.90;;;;;;5073029;28;20217;-78
2023/12/11 11:01:31;;;;;;;10.43;2.10;;;26.70;99.90;;;;;;5075399;28;20208;-76
2023/12/11 11:04:04;;;;;;;7.78;1.95;;;26.60;99.90;;;;;;5081828;28;20195;-77
2023/12/11 11:06:40;;;;;;;12.93;2.08;;;26.70;99.90;;;;;;5088402;28;20581;-80
2023/12/11 11:09:16;;;;;;;8.88;2.03;;;26.60;99.90;;;;;;5078678;28;20252;-78
2023/12/11 11:11:53;;;;;;;8.32;2.05;;;26.60;99.90;;;;;;5089138;22;20250;-75
2023/12/11 11:14:48;;;;;;;9.90;2.17;;;26.60;99.90;;;;;;5051597;28;20255;-76
2023/12/11 11:17:19;;;;;;;10.52;2.15;;;26.60;99.90;;;;;;5044571;28;20308;-76
2023/12/11 11:20:15;;;;;;;8.23;2.10;;;26.70;99.90;;;;;;5046439;28;20212;-76
2023/12/11 11:22:45;;;;;;;7.97;1.90;;;26.60;99.90;;;;;;5033986;28;20220;-76
2023/12/11 11:25:39;;;;;;;10.48;2.08;;;26.60;99.90;;;;;;5043761;28;20717;-76
2023/12/11 11:28:30;;;;;;;9.38;1.98;;;26.60;99.90;;;;;;5034658;28;20216;-76
2023/12/11 11:31:00;;;;;;;9.13;2.17;;;26.60;99.90;;;;;;5046865;28;20207;-76
2023/12/11 11:33:46;;;;;;;12.40;2.17;;;26.60;99.90;;;;;;5029941;28;20243;-76
2023/12/11 11:36:20;;;;;;;8.77;1.95;;;26.60;99.90;;;;;;5047366;28;20231;-76
2023/12/11 11:38:58;;;;;;;9.55;2.00;;;26.50;99.90;;;;;;5042476;28;20217;-76
2023/12/11 11:41:30;;;;;;;13.48;2.70;;;26.50;99.90;;;;;;5044501;28;20218;-76
2023/12/11 11:44:08;;;;;;;8.02;2.08;;;26.50;99.90;;;;;;5041782;28;20223;-76
2023/12/11 11:46:57;;;;;;;9.90;2.30;;;26.50;99.90;;;;;;5049122;28;20200;-76
2023/12/11 11:49:34;;;;;;;9.90;2.00;;;26.50;99.90;;;;;;5030145;28;20209;-75
2023/12/11 11:52:10;;;;;;;10.25;2.45;;;26.50;99.90;;;;;;5041012;28;20679;-75
2023/12/11 11:54:41;;;;;;;11.48;2.13;;;26.40;99.90;;;;;;5046341;28;20235;-77
2023/12/11 11:57:12;;;;;;;7.57;1.92;;;26.40;99.90;;;;;;5048325;28;20201;-76
2023/12/11 11:59:46;;;;;;;12.27;2.15;;;26.40;99.90;;;;;;5046649;28;20204;-76
2023/12/11 12:02:24;;;;;;;10.93;2.75;;;26.40;99.90;;;;;;5047325;28;20211;-76
2023/12/11 12:04:55;;;;;;;10.00;2.00;;;26.40;99.90;;;;;;5049019;28;20697;-76
2023/12/11 12:07:28;;;;;;;9.18;2.20;;;26.40;99.90;;;;;;5050107;28;20284;-76
2023/12/11 12:09:59;;;;;;;12.05;2.30;;;26.40;99.90;;;;;;5049498;28;20294;-77
2023/12/11 12:12:30;;;;;;;19.63;2.42;;;26.30;99.90;;;;;;5045880;28;20231;-77
2023/12/11 12:15:04;;;;;;;11.02;1.80;;;26.30;99.90;;;;;;5049646;28;20310;-77
2023/12/11 12:17:36;;;;;;;8.57;2.20;;;26.20;99.90;;;;;;5038487;28;20224;-77
2023/12/11 12:20:13;;;;;;;7.93;2.08;;;26.20;99.90;;;;;;5049825;28;20299;-76
2023/12/11 12:23:00;;;;;;;9.55;2.20;;;26.20;99.90;;;;;;5056555;28;20211;-77
2023/12/11 12:25:32;;;;;;;9.52;2.30;;;26.30;99.90;;;;;;5048413;28;20678;-76
2023/12/11 12:28:07;;;;;;;8.93;1.90;;;26.30;99.90;;;;;;5050024;28;20208;-77
2023/12/11 12:30:38;;;;;;;9.25;1.98;;;26.30;99.90;;;;;;5047768;28;20318;-77
2023/12/11 12:33:12;;;;;;;12.30;2.15;;;26.20;99.90;;;;;;5048200;28;20622;-75
2023/12/11 12:35:48;;;;;;;13.45;2.65;;;26.20;99.90;;;;;;5045310;28;20212;-76
2023/12/11 12:38:21;;;;;;;13.23;2.35;;;26.10;99.90;;;;;;5039508;28;20252;-76
2023/12/11 12:40:53;;;;;;;9.93;2.22;;;26.10;99.90;;;;;;5049635;28;20204;-76
2023/12/11 12:43:26;;;;;;;13.43;2.45;;;26.10;99.90;;;;;;5034548;28;20193;-76
2023/12/11 12:46:03;;;;;;;9.35;2.25;;;26.10;99.90;;;;;;5049722;28;20583;-76
2023/12/11 12:48:33;;;;;;;13.40;2.47;;;26.10;99.90;;;;;;5034706;28;20196;-77
2023/12/11 12:51:11;;;;;;;10.18;2.40;;;26.10;99.90;;;;;;5045903;28;20223;-77
2023/12/11 12:53:57;;;;;;;9.30;2.22;;;26.10;99.90;;;;;;5044334;28;20222;-75
2023/12/11 12:56:27;;;;;;;12.27;2.53;;;26.10;99.90;;;;;;5042153;28;20221;-75
2023/12/11 12:58:59;;;;;;;15.07;2.65;;;26.10;99.90;;;;;;5039283;28;20214;-75
2023/12/11 13:01:31;;;;;;;8.32;2.10;;;26.00;99.90;;;;;;5053187;28;20193;-75
2023/12/11 13:04:03;;;;;;;11.18;2.20;;;26.00;99.90;;;;;;5041802;28;20252;-75
2023/12/11 13:06:34;;;;;;;11.45;2.30;;;26.00;99.90;;;;;;5050441;28;20307;-75
2023/12/11 13:09:08;;;;;;;12.13;2.22;;;25.80;99.90;;;;;;5051488;28;20758;-75
2023/12/11 13:11:46;;;;;;;9.48;2.10;;;25.80;99.90;;;;;;5052824;28;20224;-75